Portada
METAR-TAF:

METAR-TAF

Aeropuertos :

Base Aérea de Almagro

Almagro, España

latitud: 38-57-11N, longitud: 3-44-29W, altitud: 629 m

Observación

El informe se hizo hace 5 horas y 18 minutos, a las 22:00 UTC
Viento calma
Temperatura 4°C
Humedad 100%
Presión 1018 hPa
Visibilidad: 3500 m

METAR: LEAO 232200Z 00000KT 8000 3500W NSC 04/04 Q1018

Hora: 04:18 (03:18 UTC)

Pronóstico

El informe se hizo hace 10 horas y 18 minutos, a las 17:00 UTC
Pronóstico válido del 23 a las 18 UTC al 24 a las 03 UTC
Viento 5 kt con dirección variable
Visibilidad 10 km o más
Nubes dispersas a una altura de 3000 ft
Cielo nuboso a una altura de 5000 ft
Probabilidad 40% :
Temporalmente
del 23 a las 18 UTC al 24 a las 03 UTC
lluvia

TAF: LEAO 231700Z 2318/2403 VRB05KT 9999 SCT030 BKN050 PROB40 TEMPO 2318/2403 RA

Observaciones y pronósticos meteorológicos de más de 4000 aeropuertos (mensajes METAR y TAF).

Los puntos amarillos y rojos representan las estaciones disponibles.

Ponga el ratón en el punto deseado para ver el nombre de la estación.

Haga clic para ver las observaciones y los pronósticos meteorológicos.

Para cambiar el mapa : haga clic en los botones verdes con una cruz de color negro para hacer un zoom, en el botón verde con un guión para alejar o en las flechas verdes para mapas adyacentes.


METAR-TAF: